sensor_id;sensor_type;location;lat;lon;timestamp;temperature;humidity
16315;DHT22;8266;52.150;4.768;2024-01-27T00:01:50;6.10;99.90
16315;DHT22;8266;52.150;4.768;2024-01-27T00:04:18;6.10;99.90
16315;DHT22;8266;52.150;4.768;2024-01-27T00:06:45;6.10;99.90
16315;DHT22;8266;52.150;4.768;2024-01-27T00:09:12;6.00;99.90
16315;DHT22;8266;52.150;4.768;2024-01-27T00:11:39;6.00;99.90
16315;DHT22;8266;52.150;4.768;2024-01-27T00:14:06;6.00;99.90
16315;DHT22;8266;52.150;4.768;2024-01-27T00:16:33;6.00;99.90
16315;DHT22;8266;52.150;4.768;2024-01-27T00:19:00;6.00;99.90
16315;DHT22;8266;52.150;4.768;2024-01-27T00:21:29;6.00;99.90
16315;DHT22;8266;52.150;4.768;2024-01-27T00:23:56;6.00;99.90
16315;DHT22;8266;52.150;4.768;2024-01-27T00:26:26;6.00;99.90
16315;DHT22;8266;52.150;4.768;2024-01-27T00:28:53;6.00;99.90
16315;DHT22;8266;52.150;4.768;2024-01-27T00:31:21;6.00;99.90
16315;DHT22;8266;52.150;4.768;2024-01-27T00:33:48;6.00;99.90
16315;DHT22;8266;52.150;4.768;2024-01-27T00:36:15;6.00;99.90
16315;DHT22;8266;52.150;4.768;2024-01-27T00:38:43;6.00;99.90
16315;DHT22;8266;52.150;4.768;2024-01-27T00:41:16;6.00;99.90
16315;DHT22;8266;52.150;4.768;2024-01-27T00:43:43;5.90;99.90
16315;DHT22;8266;52.150;4.768;2024-01-27T00:46:10;5.90;99.90
16315;DHT22;8266;52.150;4.768;2024-01-27T00:48:37;5.90;99.90
16315;DHT22;8266;52.150;4.768;2024-01-27T00:51:04;5.90;99.90
16315;DHT22;8266;52.150;4.768;2024-01-27T00:53:31;5.90;99.90
16315;DHT22;8266;52.150;4.768;2024-01-27T00:56:00;5.90;99.90
16315;DHT22;8266;52.150;4.768;2024-01-27T00:58:27;5.80;99.90
16315;DHT22;8266;52.150;4.768;2024-01-27T01:00:54;5.90;99.90
16315;DHT22;8266;52.150;4.768;2024-01-27T01:03:21;5.80;99.90
16315;DHT22;8266;52.150;4.768;2024-01-27T01:05:48;5.80;99.90
16315;DHT22;8266;52.150;4.768;2024-01-27T01:08:15;5.80;99.90
16315;DHT22;8266;52.150;4.768;2024-01-27T01:10:42;5.80;99.90
16315;DHT22;8266;52.150;4.768;2024-01-27T01:13:10;5.80;99.90
16315;DHT22;8266;52.150;4.768;2024-01-27T01:15:37;5.80;99.90
16315;DHT22;8266;52.150;4.768;2024-01-27T01:18:05;5.80;99.90
16315;DHT22;8266;52.150;4.768;2024-01-27T01:20:32;5.80;99.90
16315;DHT22;8266;52.150;4.768;2024-01-27T01:22:59;5.70;99.90
16315;DHT22;8266;52.150;4.768;2024-01-27T01:25:26;5.70;99.90
16315;DHT22;8266;52.150;4.768;2024-01-27T01:27:53;5.70;99.90
16315;DHT22;8266;52.150;4.768;2024-01-27T01:30:21;5.70;99.90
16315;DHT22;8266;52.150;4.768;2024-01-27T01:32:48;5.70;99.90
16315;DHT22;8266;52.150;4.768;2024-01-27T01:35:16;5.70;99.90
16315;DHT22;8266;52.150;4.768;2024-01-27T01:37:43;5.70;99.90
16315;DHT22;8266;52.150;4.768;2024-01-27T01:40:10;5.70;99.90
16315;DHT22;8266;52.150;4.768;2024-01-27T01:42:38;5.70;99.90
16315;DHT22;8266;52.150;4.768;2024-01-27T01:45:05;5.70;99.90
16315;DHT22;8266;52.150;4.768;2024-01-27T01:47:34;5.70;99.90
16315;DHT22;8266;52.150;4.768;2024-01-27T01:50:01;5.70;99.90
16315;DHT22;8266;52.150;4.768;2024-01-27T01:52:29;5.70;99.90
16315;DHT22;8266;52.150;4.768;2024-01-27T01:54:56;5.70;99.90
16315;DHT22;8266;52.150;4.768;2024-01-27T01:57:23;5.70;99.90
16315;DHT22;8266;52.150;4.768;2024-01-27T01:59:50;5.70;99.90
16315;DHT22;8266;52.150;4.768;2024-01-27T02:02:17;5.60;99.90
16315;DHT22;8266;52.150;4.768;2024-01-27T02:04:45;5.60;99.90
16315;DHT22;8266;52.150;4.768;2024-01-27T02:07:12;5.60;99.90
16315;DHT22;8266;52.150;4.768;2024-01-27T02:09:39;5.60;99.90
16315;DHT22;8266;52.150;4.768;2024-01-27T02:12:07;5.60;99.90
16315;DHT22;8266;52.150;4.768;2024-01-27T02:14:34;5.60;99.90
16315;DHT22;8266;52.150;4.768;2024-01-27T02:17:01;5.60;99.90
16315;DHT22;8266;52.150;4.768;2024-01-27T02:19:29;5.60;99.90
16315;DHT22;8266;52.150;4.768;2024-01-27T02:21:58;5.50;99.90
16315;DHT22;8266;52.150;4.768;2024-01-27T02:24:26;5.50;99.90
16315;DHT22;8266;52.150;4.768;2024-01-27T02:26:54;5.50;99.90
16315;DHT22;8266;52.150;4.768;2024-01-27T02:29:21;5.50;99.90
16315;DHT22;8266;52.150;4.768;2024-01-27T02:31:48;5.50;99.90
16315;DHT22;8266;52.150;4.768;2024-01-27T02:34:15;5.50;99.90
16315;DHT22;8266;52.150;4.768;2024-01-27T02:36:43;5.60;99.90
16315;DHT22;8266;52.150;4.768;2024-01-27T02:39:10;5.50;99.90
16315;DHT22;8266;52.150;4.768;2024-01-27T02:41:38;5.50;99.90
16315;DHT22;8266;52.150;4.768;2024-01-27T02:44:05;5.50;99.90
16315;DHT22;8266;52.150;4.768;2024-01-27T02:46:32;5.50;99.90
16315;DHT22;8266;52.150;4.768;2024-01-27T02:48:59;5.50;99.90
16315;DHT22;8266;52.150;4.768;2024-01-27T02:51:26;5.50;99.90
16315;DHT22;8266;52.150;4.768;2024-01-27T02:53:53;5.50;99.90
16315;DHT22;8266;52.150;4.768;2024-01-27T02:56:20;5.50;99.90
16315;DHT22;8266;52.150;4.768;2024-01-27T02:58:49;5.50;99.90
16315;DHT22;8266;52.150;4.768;2024-01-27T03:01:16;5.50;99.90
16315;DHT22;8266;52.150;4.768;2024-01-27T03:03:43;5.50;99.90
16315;DHT22;8266;52.150;4.768;2024-01-27T03:06:10;5.50;99.90
16315;DHT22;8266;52.150;4.768;2024-01-27T03:08:37;5.40;99.90
16315;DHT22;8266;52.150;4.768;2024-01-27T03:11:04;5.40;99.90
16315;DHT22;8266;52.150;4.768;2024-01-27T03:13:31;5.40;99.90
16315;DHT22;8266;52.150;4.768;2024-01-27T03:15:59;5.40;99.90
16315;DHT22;8266;52.150;4.768;2024-01-27T03:18:26;5.40;99.90
16315;DHT22;8266;52.150;4.768;2024-01-27T03:20:53;5.40;99.90
16315;DHT22;8266;52.150;4.768;2024-01-27T03:23:21;5.40;99.90
16315;DHT22;8266;52.150;4.768;2024-01-27T03:25:47;5.40;99.90
16315;DHT22;8266;52.150;4.768;2024-01-27T03:28:14;5.40;99.90
16315;DHT22;8266;52.150;4.768;2024-01-27T03:30:42;5.40;99.90
16315;DHT22;8266;52.150;4.768;2024-01-27T03:33:10;5.30;99.90
16315;DHT22;8266;52.150;4.768;2024-01-27T03:35:39;5.30;99.90
16315;DHT22;8266;52.150;4.768;2024-01-27T03:38:06;5.30;99.90
16315;DHT22;8266;52.150;4.768;2024-01-27T03:40:33;5.40;99.90
16315;DHT22;8266;52.150;4.768;2024-01-27T03:43:00;5.30;99.90
16315;DHT22;8266;52.150;4.768;2024-01-27T03:45:27;5.30;99.90
16315;DHT22;8266;52.150;4.768;2024-01-27T03:47:54;5.30;99.90
16315;DHT22;8266;52.150;4.768;2024-01-27T03:50:22;5.30;99.90
16315;DHT22;8266;52.150;4.768;2024-01-27T03:52:49;5.30;99.90
16315;DHT22;8266;52.150;4.768;2024-01-27T03:55:16;5.30;99.90
16315;DHT22;8266;52.150;4.768;2024-01-27T03:57:43;5.30;99.90
16315;DHT22;8266;52.150;4.768;2024-01-27T04:00:11;5.30;99.90
16315;DHT22;8266;52.150;4.768;2024-01-27T04:02:38;5.30;99.90
16315;DHT22;8266;52.150;4.768;2024-01-27T04:05:06;5.30;99.90
16315;DHT22;8266;52.150;4.768;2024-01-27T04:07:35;5.20;99.90
16315;DHT22;8266;52.150;4.768;2024-01-27T04:10:03;5.20;99.90
16315;DHT22;8266;52.150;4.768;2024-01-27T04:12:30;5.20;99.90
16315;DHT22;8266;52.150;4.768;2024-01-27T04:14:58;5.20;99.90
16315;DHT22;8266;52.150;4.768;2024-01-27T04:17:25;5.20;99.90
16315;DHT22;8266;52.150;4.768;2024-01-27T04:19:52;5.10;99.90
16315;DHT22;8266;52.150;4.768;2024-01-27T04:22:19;5.10;99.90
16315;DHT22;8266;52.150;4.768;2024-01-27T04:24:47;5.10;99.90
16315;DHT22;8266;52.150;4.768;2024-01-27T04:27:14;5.10;99.90
16315;DHT22;8266;52.150;4.768;2024-01-27T04:29:42;5.10;99.90
16315;DHT22;8266;52.150;4.768;2024-01-27T04:32:09;5.10;99.90
16315;DHT22;8266;52.150;4.768;2024-01-27T04:34:36;5.10;99.90
16315;DHT22;8266;52.150;4.768;2024-01-27T04:37:03;5.00;99.90
16315;DHT22;8266;52.150;4.768;2024-01-27T04:39:30;5.00;99.90
16315;DHT22;8266;52.150;4.768;2024-01-27T04:41:58;5.00;99.90
16315;DHT22;8266;52.150;4.768;2024-01-27T04:44:26;5.00;99.90
16315;DHT22;8266;52.150;4.768;2024-01-27T04:46:52;5.00;99.90
16315;DHT22;8266;52.150;4.768;2024-01-27T04:49:20;4.90;99.90
16315;DHT22;8266;52.150;4.768;2024-01-27T04:51:47;4.90;99.90
16315;DHT22;8266;52.150;4.768;2024-01-27T04:54:14;4.90;99.90
16315;DHT22;8266;52.150;4.768;2024-01-27T04:56:41;4.90;99.90
16315;DHT22;8266;52.150;4.768;2024-01-27T04:59:10;4.90;99.90
16315;DHT22;8266;52.150;4.768;2024-01-27T05:01:36;4.80;99.90
16315;DHT22;8266;52.150;4.768;2024-01-27T05:04:04;4.80;99.90
16315;DHT22;8266;52.150;4.768;2024-01-27T05:06:31;4.80;99.90
16315;DHT22;8266;52.150;4.768;2024-01-27T05:08:58;4.80;99.90
16315;DHT22;8266;52.150;4.768;2024-01-27T05:11:25;4.80;99.90
16315;DHT22;8266;52.150;4.768;2024-01-27T05:13:53;4.80;99.90
16315;DHT22;8266;52.150;4.768;2024-01-27T05:16:21;4.80;99.90
16315;DHT22;8266;52.150;4.768;2024-01-27T05:18:48;4.80;99.90
16315;DHT22;8266;52.150;4.768;2024-01-27T05:21:16;4.70;99.90
16315;DHT22;8266;52.150;4.768;2024-01-27T05:23:43;4.70;99.90
16315;DHT22;8266;52.150;4.768;2024-01-27T05:26:10;4.70;99.90
16315;DHT22;8266;52.150;4.768;2024-01-27T05:28:37;4.70;99.90
16315;DHT22;8266;52.150;4.768;2024-01-27T05:31:07;4.70;99.90
16315;DHT22;8266;52.150;4.768;2024-01-27T05:33:35;4.70;99.90
16315;DHT22;8266;52.150;4.768;2024-01-27T05:36:02;4.80;99.90
16315;DHT22;8266;52.150;4.768;2024-01-27T05:38:30;4.70;99.90
16315;DHT22;8266;52.150;4.768;2024-01-27T05:40:58;4.70;99.90
16315;DHT22;8266;52.150;4.768;2024-01-27T05:43:25;4.70;99.90
16315;DHT22;8266;52.150;4.768;2024-01-27T05:45:52;4.70;99.90
16315;DHT22;8266;52.150;4.768;2024-01-27T05:48:19;4.70;99.90
16315;DHT22;8266;52.150;4.768;2024-01-27T05:50:56;4.70;99.90
16315;DHT22;8266;52.150;4.768;2024-01-27T05:53:23;4.70;99.90
16315;DHT22;8266;52.150;4.768;2024-01-27T05:55:50;4.70;99.90
16315;DHT22;8266;52.150;4.768;2024-01-27T05:58:17;4.70;99.90
16315;DHT22;8266;52.150;4.768;2024-01-27T06:00:46;4.60;99.90
16315;DHT22;8266;52.150;4.768;2024-01-27T06:03:14;4.60;99.90
16315;DHT22;8266;52.150;4.768;2024-01-27T06:05:42;4.70;99.90
16315;DHT22;8266;52.150;4.768;2024-01-27T06:08:11;4.60;99.90
16315;DHT22;8266;52.150;4.768;2024-01-27T06:10:38;4.60;99.90
16315;DHT22;8266;52.150;4.768;2024-01-27T06:13:05;4.60;99.90
16315;DHT22;8266;52.150;4.768;2024-01-27T06:15:33;4.60;99.90
16315;DHT22;8266;52.150;4.768;2024-01-27T06:18:02;4.60;99.90
16315;DHT22;8266;52.150;4.768;2024-01-27T06:20:29;4.50;99.90
16315;DHT22;8266;52.150;4.768;2024-01-27T06:22:56;4.50;99.90
16315;DHT22;8266;52.150;4.768;2024-01-27T06:25:26;4.50;99.90
16315;DHT22;8266;52.150;4.768;2024-01-27T06:27:53;4.50;99.90
16315;DHT22;8266;52.150;4.768;2024-01-27T06:30:20;4.50;99.90
16315;DHT22;8266;52.150;4.768;2024-01-27T06:32:47;4.50;99.90
16315;DHT22;8266;52.150;4.768;2024-01-27T06:35:17;4.50;99.90
16315;DHT22;8266;52.150;4.768;2024-01-27T06:37:46;4.50;99.90
16315;DHT22;8266;52.150;4.768;2024-01-27T06:40:14;4.50;99.90
16315;DHT22;8266;52.150;4.768;2024-01-27T06:42:42;4.50;99.90
16315;DHT22;8266;52.150;4.768;2024-01-27T06:45:10;4.60;99.90
16315;DHT22;8266;52.150;4.768;2024-01-27T06:47:37;4.50;99.90
16315;DHT22;8266;52.150;4.768;2024-01-27T06:50:04;4.40;99.90
16315;DHT22;8266;52.150;4.768;2024-01-27T06:52:31;4.50;99.90
16315;DHT22;8266;52.150;4.768;2024-01-27T06:54:58;4.40;99.90
16315;DHT22;8266;52.150;4.768;2024-01-27T06:57:25;4.40;99.90
16315;DHT22;8266;52.150;4.768;2024-01-27T06:59:54;4.40;99.90
16315;DHT22;8266;52.150;4.768;2024-01-27T07:02:23;4.40;99.90
16315;DHT22;8266;52.150;4.768;2024-01-27T07:04:50;4.40;99.90
16315;DHT22;8266;52.150;4.768;2024-01-27T07:07:17;4.50;99.90
16315;DHT22;8266;52.150;4.768;2024-01-27T07:09:44;4.40;99.90
16315;DHT22;8266;52.150;4.768;2024-01-27T07:12:12;4.40;99.90
16315;DHT22;8266;52.150;4.768;2024-01-27T07:14:39;4.40;99.90
16315;DHT22;8266;52.150;4.768;2024-01-27T07:17:07;4.30;99.90
16315;DHT22;8266;52.150;4.768;2024-01-27T07:19:34;4.30;99.90
16315;DHT22;8266;52.150;4.768;2024-01-27T07:22:01;4.30;99.90
16315;DHT22;8266;52.150;4.768;2024-01-27T07:24:29;4.30;99.90
16315;DHT22;8266;52.150;4.768;2024-01-27T07:26:59;4.40;99.90
16315;DHT22;8266;52.150;4.768;2024-01-27T07:29:26;4.30;99.90
16315;DHT22;8266;52.150;4.768;2024-01-27T07:31:53;4.30;99.90
16315;DHT22;8266;52.150;4.768;2024-01-27T07:34:22;4.30;99.90
16315;DHT22;8266;52.150;4.768;2024-01-27T07:36:49;4.30;99.90
16315;DHT22;8266;52.150;4.768;2024-01-27T07:39:16;4.30;99.90
16315;DHT22;8266;52.150;4.768;2024-01-27T07:41:43;4.30;99.90
16315;DHT22;8266;52.150;4.768;2024-01-27T07:44:12;4.30;99.90
16315;DHT22;8266;52.150;4.768;2024-01-27T07:46:40;4.30;99.90
16315;DHT22;8266;52.150;4.768;2024-01-27T07:49:08;4.40;99.90
16315;DHT22;8266;52.150;4.768;2024-01-27T07:51:38;4.40;99.90
16315;DHT22;8266;52.150;4.768;2024-01-27T07:54:05;4.40;99.90
16315;DHT22;8266;52.150;4.768;2024-01-27T07:56:33;4.50;99.90
16315;DHT22;8266;52.150;4.768;2024-01-27T07:59:00;4.50;99.90
16315;DHT22;8266;52.150;4.768;2024-01-27T08:01:27;4.50;99.90
16315;DHT22;8266;52.150;4.768;2024-01-27T08:03:54;4.50;99.90
16315;DHT22;8266;52.150;4.768;2024-01-27T08:06:28;4.60;99.90
16315;DHT22;8266;52.150;4.768;2024-01-27T08:08:56;4.60;99.90
16315;DHT22;8266;52.150;4.768;2024-01-27T08:11:23;4.60;99.90
16315;DHT22;8266;52.150;4.768;2024-01-27T08:13:51;4.70;99.90
16315;DHT22;8266;52.150;4.768;2024-01-27T08:16:19;4.70;99.90
16315;DHT22;8266;52.150;4.768;2024-01-27T08:18:47;4.70;99.90
16315;DHT22;8266;52.150;4.768;2024-01-27T08:21:14;4.80;99.90
16315;DHT22;8266;52.150;4.768;2024-01-27T08:23:41;4.80;99.90
16315;DHT22;8266;52.150;4.768;2024-01-27T08:26:09;4.90;99.90
16315;DHT22;8266;52.150;4.768;2024-01-27T08:28:36;4.90;99.90
16315;DHT22;8266;52.150;4.768;2024-01-27T08:31:04;5.00;99.90
16315;DHT22;8266;52.150;4.768;2024-01-27T08:33:31;5.00;99.90
16315;DHT22;8266;52.150;4.768;2024-01-27T08:35:58;5.10;99.90
16315;DHT22;8266;52.150;4.768;2024-01-27T08:38:25;5.10;99.90
16315;DHT22;8266;52.150;4.768;2024-01-27T08:40:52;5.20;99.90
16315;DHT22;8266;52.150;4.768;2024-01-27T08:43:20;5.30;99.90
16315;DHT22;8266;52.150;4.768;2024-01-27T08:45:48;5.40;99.90
16315;DHT22;8266;52.150;4.768;2024-01-27T08:48:15;5.60;99.90
16315;DHT22;8266;52.150;4.768;2024-01-27T08:50:42;5.80;99.90
16315;DHT22;8266;52.150;4.768;2024-01-27T08:53:09;6.10;99.90
16315;DHT22;8266;52.150;4.768;2024-01-27T08:55:36;6.30;99.90
16315;DHT22;8266;52.150;4.768;2024-01-27T08:58:03;6.60;99.90
16315;DHT22;8266;52.150;4.768;2024-01-27T09:00:32;6.80;99.90
16315;DHT22;8266;52.150;4.768;2024-01-27T09:02:59;7.10;99.90
16315;DHT22;8266;52.150;4.768;2024-01-27T09:05:26;7.40;99.90
16315;DHT22;8266;52.150;4.768;2024-01-27T09:07:54;7.60;99.90
16315;DHT22;8266;52.150;4.768;2024-01-27T09:10:21;7.90;99.90
16315;DHT22;8266;52.150;4.768;2024-01-27T09:12:48;8.10;99.90
16315;DHT22;8266;52.150;4.768;2024-01-27T09:15:15;8.30;99.90
16315;DHT22;8266;52.150;4.768;2024-01-27T09:17:43;8.50;99.90
16315;DHT22;8266;52.150;4.768;2024-01-27T09:20:11;8.60;99.90
16315;DHT22;8266;52.150;4.768;2024-01-27T09:22:38;8.80;99.90
16315;DHT22;8266;52.150;4.768;2024-01-27T09:25:07;8.90;99.90
16315;DHT22;8266;52.150;4.768;2024-01-27T09:27:35;9.10;99.90
16315;DHT22;8266;52.150;4.768;2024-01-27T09:30:02;9.20;99.90
16315;DHT22;8266;52.150;4.768;2024-01-27T09:32:30;9.40;99.90
16315;DHT22;8266;52.150;4.768;2024-01-27T09:34:59;9.60;99.90
16315;DHT22;8266;52.150;4.768;2024-01-27T09:37:26;9.70;99.90
16315;DHT22;8266;52.150;4.768;2024-01-27T09:39:53;9.90;99.90
16315;DHT22;8266;52.150;4.768;2024-01-27T09:42:21;10.10;99.90
16315;DHT22;8266;52.150;4.768;2024-01-27T09:44:49;10.20;99.90
16315;DHT22;8266;52.150;4.768;2024-01-27T09:47:16;10.40;99.90
16315;DHT22;8266;52.150;4.768;2024-01-27T09:49:43;10.60;99.90
16315;DHT22;8266;52.150;4.768;2024-01-27T09:52:12;10.80;99.90
16315;DHT22;8266;52.150;4.768;2024-01-27T09:54:40;11.00;99.90
16315;DHT22;8266;52.150;4.768;2024-01-27T09:57:09;11.10;99.90
16315;DHT22;8266;52.150;4.768;2024-01-27T09:59:39;11.30;99.90
16315;DHT22;8266;52.150;4.768;2024-01-27T10:02:09;11.40;99.90
16315;DHT22;8266;52.150;4.768;2024-01-27T10:04:38;11.60;99.90
16315;DHT22;8266;52.150;4.768;2024-01-27T10:07:05;11.70;99.90
16315;DHT22;8266;52.150;4.768;2024-01-27T10:09:33;11.80;99.90
16315;DHT22;8266;52.150;4.768;2024-01-27T10:12:01;11.90;99.90
16315;DHT22;8266;52.150;4.768;2024-01-27T10:14:38;12.00;99.90
16315;DHT22;8266;52.150;4.768;2024-01-27T10:17:05;12.10;99.90
16315;DHT22;8266;52.150;4.768;2024-01-27T10:19:35;12.20;99.90
16315;DHT22;8266;52.150;4.768;2024-01-27T10:22:02;12.30;99.90
16315;DHT22;8266;52.150;4.768;2024-01-27T10:24:33;12.40;99.90
16315;DHT22;8266;52.150;4.768;2024-01-27T10:27:01;12.40;99.90
16315;DHT22;8266;52.150;4.768;2024-01-27T10:29:29;12.50;99.90
16315;DHT22;8266;52.150;4.768;2024-01-27T10:32:06;12.50;99.90
16315;DHT22;8266;52.150;4.768;2024-01-27T10:34:33;12.50;99.90
16315;DHT22;8266;52.150;4.768;2024-01-27T10:37:00;12.50;99.90
16315;DHT22;8266;52.150;4.768;2024-01-27T10:39:27;12.40;99.90
16315;DHT22;8266;52.150;4.768;2024-01-27T10:41:55;12.40;99.90
16315;DHT22;8266;52.150;4.768;2024-01-27T10:44:24;12.40;99.90
16315;DHT22;8266;52.150;4.768;2024-01-27T10:46:52;12.30;99.90
16315;DHT22;8266;52.150;4.768;2024-01-27T10:49:20;12.20;99.90
16315;DHT22;8266;52.150;4.768;2024-01-27T10:51:54;12.10;99.90
16315;DHT22;8266;52.150;4.768;2024-01-27T10:54:24;12.00;99.90
16315;DHT22;8266;52.150;4.768;2024-01-27T10:56:54;11.90;99.90
16315;DHT22;8266;52.150;4.768;2024-01-27T10:59:22;11.80;99.90
16315;DHT22;8266;52.150;4.768;2024-01-27T11:01:49;11.70;99.90
16315;DHT22;8266;52.150;4.768;2024-01-27T11:04:19;11.60;99.90
16315;DHT22;8266;52.150;4.768;2024-01-27T11:06:47;11.50;99.90
16315;DHT22;8266;52.150;4.768;2024-01-27T11:09:15;11.40;99.90
16315;DHT22;8266;52.150;4.768;2024-01-27T11:11:43;11.30;99.90
16315;DHT22;8266;52.150;4.768;2024-01-27T11:14:12;11.30;99.90
16315;DHT22;8266;52.150;4.768;2024-01-27T11:16:40;11.20;99.90
16315;DHT22;8266;52.150;4.768;2024-01-27T11:19:10;11.20;99.90
16315;DHT22;8266;52.150;4.768;2024-01-27T11:21:38;11.10;99.90
16315;DHT22;8266;52.150;4.768;2024-01-27T11:24:13;11.10;99.90
16315;DHT22;8266;52.150;4.768;2024-01-27T11:26:40;11.10;99.90
16315;DHT22;8266;52.150;4.768;2024-01-27T11:29:08;11.10;99.90
16315;DHT22;8266;52.150;4.768;2024-01-27T11:31:46;11.10;99.90
16315;DHT22;8266;52.150;4.768;2024-01-27T11:34:13;11.10;99.90
16315;DHT22;8266;52.150;4.768;2024-01-27T11:36:43;11.10;99.90
16315;DHT22;8266;52.150;4.768;2024-01-27T11:39:26;11.10;99.90
16315;DHT22;8266;52.150;4.768;2024-01-27T11:42:03;11.10;99.90
16315;DHT22;8266;52.150;4.768;2024-01-27T11:44:31;11.10;99.90
16315;DHT22;8266;52.150;4.768;2024-01-27T11:47:01;11.10;99.90
16315;DHT22;8266;52.150;4.768;2024-01-27T11:49:28;11.20;99.90
16315;DHT22;8266;52.150;4.768;2024-01-27T11:51:55;11.20;99.90
16315;DHT22;8266;52.150;4.768;2024-01-27T11:54:23;11.20;99.90
16315;DHT22;8266;52.150;4.768;2024-01-27T11:56:50;11.30;99.90
16315;DHT22;8266;52.150;4.768;2024-01-27T11:59:18;11.30;99.90
16315;DHT22;8266;52.150;4.768;2024-01-27T12:01:47;11.30;99.90
16315;DHT22;8266;52.150;4.768;2024-01-27T12:04:16;11.40;99.90
16315;DHT22;8266;52.150;4.768;2024-01-27T12:06:43;11.40;99.90
16315;DHT22;8266;52.150;4.768;2024-01-27T12:09:11;11.50;99.90
16315;DHT22;8266;52.150;4.768;2024-01-27T12:11:39;11.50;99.90
16315;DHT22;8266;52.150;4.768;2024-01-27T12:14:07;11.50;99.90
16315;DHT22;8266;52.150;4.768;2024-01-27T12:16:34;11.60;99.90
16315;DHT22;8266;52.150;4.768;2024-01-27T12:19:01;11.60;99.90
16315;DHT22;8266;52.150;4.768;2024-01-27T12:21:30;11.60;99.90
16315;DHT22;8266;52.150;4.768;2024-01-27T12:23:57;11.70;99.90
16315;DHT22;8266;52.150;4.768;2024-01-27T12:26:25;11.70;99.90
16315;DHT22;8266;52.150;4.768;2024-01-27T12:28:54;11.70;99.90
16315;DHT22;8266;52.150;4.768;2024-01-27T12:31:22;11.80;99.90
16315;DHT22;8266;52.150;4.768;2024-01-27T12:33:51;11.80;99.90
16315;DHT22;8266;52.150;4.768;2024-01-27T12:36:18;11.80;99.90
16315;DHT22;8266;52.150;4.768;2024-01-27T12:38:53;11.80;99.90
16315;DHT22;8266;52.150;4.768;2024-01-27T12:41:21;11.70;99.90
16315;DHT22;8266;52.150;4.768;2024-01-27T12:43:48;11.70;99.90
16315;DHT22;8266;52.150;4.768;2024-01-27T12:46:15;11.70;99.90
16315;DHT22;8266;52.150;4.768;2024-01-27T12:48:42;11.80;99.90
16315;DHT22;8266;52.150;4.768;2024-01-27T12:51:09;11.80;99.90
16315;DHT22;8266;52.150;4.768;2024-01-27T12:53:38;11.80;99.90
16315;DHT22;8266;52.150;4.768;2024-01-27T12:56:09;11.80;99.90
16315;DHT22;8266;52.150;4.768;2024-01-27T12:58:36;11.80;99.90
16315;DHT22;8266;52.150;4.768;2024-01-27T13:01:03;11.80;99.90
16315;DHT22;8266;52.150;4.768;2024-01-27T13:03:31;11.90;99.90
16315;DHT22;8266;52.150;4.768;2024-01-27T13:05:58;11.90;99.90
16315;DHT22;8266;52.150;4.768;2024-01-27T13:08:25;11.90;99.90
16315;DHT22;8266;52.150;4.768;2024-01-27T13:10:52;11.90;99.90
16315;DHT22;8266;52.150;4.768;2024-01-27T13:13:21;11.90;99.90
16315;DHT22;8266;52.150;4.768;2024-01-27T13:15:48;11.90;99.90
16315;DHT22;8266;52.150;4.768;2024-01-27T13:18:15;11.90;99.90
16315;DHT22;8266;52.150;4.768;2024-01-27T13:20:42;11.90;99.90
16315;DHT22;8266;52.150;4.768;2024-01-27T13:23:09;11.90;99.90
16315;DHT22;8266;52.150;4.768;2024-01-27T13:25:36;11.90;99.90
16315;DHT22;8266;52.150;4.768;2024-01-27T13:28:03;11.90;99.90
16315;DHT22;8266;52.150;4.768;2024-01-27T13:30:34;12.00;99.90
16315;DHT22;8266;52.150;4.768;2024-01-27T13:33:01;11.90;99.90
16315;DHT22;8266;52.150;4.768;2024-01-27T13:35:28;12.00;99.90
16315;DHT22;8266;52.150;4.768;2024-01-27T13:37:55;12.00;99.90
16315;DHT22;8266;52.150;4.768;2024-01-27T13:40:22;12.00;99.90
16315;DHT22;8266;52.150;4.768;2024-01-27T13:42:49;12.00;99.90
16315;DHT22;8266;52.150;4.768;2024-01-27T13:45:16;12.00;99.90
16315;DHT22;8266;52.150;4.768;2024-01-27T13:47:44;12.00;99.90
16315;DHT22;8266;52.150;4.768;2024-01-27T13:50:11;12.00;99.90
16315;DHT22;8266;52.150;4.768;2024-01-27T13:52:38;12.10;99.90
16315;DHT22;8266;52.150;4.768;2024-01-27T13:55:07;12.10;99.90
16315;DHT22;8266;52.150;4.768;2024-01-27T13:57:35;12.10;99.90
16315;DHT22;8266;52.150;4.768;2024-01-27T14:00:02;12.10;99.90
16315;DHT22;8266;52.150;4.768;2024-01-27T14:02:29;12.10;99.90
16315;DHT22;8266;52.150;4.768;2024-01-27T14:04:58;12.10;99.90
16315;DHT22;8266;52.150;4.768;2024-01-27T14:07:25;12.10;99.90
16315;DHT22;8266;52.150;4.768;2024-01-27T14:09:52;12.10;99.90
16315;DHT22;8266;52.150;4.768;2024-01-27T14:12:19;12.10;99.90
16315;DHT22;8266;52.150;4.768;2024-01-27T14:14:49;12.10;99.90
16315;DHT22;8266;52.150;4.768;2024-01-27T14:17:16;12.10;99.90
16315;DHT22;8266;52.150;4.768;2024-01-27T14:19:43;12.00;99.90
16315;DHT22;8266;52.150;4.768;2024-01-27T14:22:12;12.00;99.90
16315;DHT22;8266;52.150;4.768;2024-01-27T14:24:39;12.00;99.90
16315;DHT22;8266;52.150;4.768;2024-01-27T14:27:07;12.00;99.90
16315;DHT22;8266;52.150;4.768;2024-01-27T14:29:35;12.00;99.90
16315;DHT22;8266;52.150;4.768;2024-01-27T14:32:04;12.00;99.90
16315;DHT22;8266;52.150;4.768;2024-01-27T14:34:32;12.00;99.90
16315;DHT22;8266;52.150;4.768;2024-01-27T14:36:59;11.90;99.90
16315;DHT22;8266;52.150;4.768;2024-01-27T14:39:29;11.90;99.90
16315;DHT22;8266;52.150;4.768;2024-01-27T14:41:57;11.90;99.90
16315;DHT22;8266;52.150;4.768;2024-01-27T14:44:24;11.90;99.90
16315;DHT22;8266;52.150;4.768;2024-01-27T14:46:51;11.90;99.90
16315;DHT22;8266;52.150;4.768;2024-01-27T14:49:18;11.90;99.90
16315;DHT22;8266;52.150;4.768;2024-01-27T14:51:47;11.80;99.90
16315;DHT22;8266;52.150;4.768;2024-01-27T14:54:14;11.80;99.90
16315;DHT22;8266;52.150;4.768;2024-01-27T14:56:43;11.80;99.90
16315;DHT22;8266;52.150;4.768;2024-01-27T14:59:10;11.70;99.90
16315;DHT22;8266;52.150;4.768;2024-01-27T15:01:37;11.70;99.90
16315;DHT22;8266;52.150;4.768;2024-01-27T15:04:05;11.70;99.90
16315;DHT22;8266;52.150;4.768;2024-01-27T15:06:32;11.70;99.90
16315;DHT22;8266;52.150;4.768;2024-01-27T15:08:59;11.70;99.90
16315;DHT22;8266;52.150;4.768;2024-01-27T15:11:26;11.70;99.90
16315;DHT22;8266;52.150;4.768;2024-01-27T15:13:55;11.70;99.90
16315;DHT22;8266;52.150;4.768;2024-01-27T15:16:22;11.60;99.90
16315;DHT22;8266;52.150;4.768;2024-01-27T15:18:52;11.60;99.90
16315;DHT22;8266;52.150;4.768;2024-01-27T15:21:19;11.60;99.90
16315;DHT22;8266;52.150;4.768;2024-01-27T15:23:46;11.60;99.90
16315;DHT22;8266;52.150;4.768;2024-01-27T15:26:13;11.50;99.90
16315;DHT22;8266;52.150;4.768;2024-01-27T15:28:40;11.60;99.90
16315;DHT22;8266;52.150;4.768;2024-01-27T15:31:08;11.50;99.90
16315;DHT22;8266;52.150;4.768;2024-01-27T15:33:35;11.50;99.90
16315;DHT22;8266;52.150;4.768;2024-01-27T15:36:04;11.50;99.90
16315;DHT22;8266;52.150;4.768;2024-01-27T15:38:31;11.40;99.90
16315;DHT22;8266;52.150;4.768;2024-01-27T15:40:58;11.40;99.90
16315;DHT22;8266;52.150;4.768;2024-01-27T15:43:28;11.30;99.90
16315;DHT22;8266;52.150;4.768;2024-01-27T15:45:55;11.30;99.90
16315;DHT22;8266;52.150;4.768;2024-01-27T15:48:23;11.20;99.90
16315;DHT22;8266;52.150;4.768;2024-01-27T15:50:52;11.10;99.90
16315;DHT22;8266;52.150;4.768;2024-01-27T15:53:19;11.10;99.90
16315;DHT22;8266;52.150;4.768;2024-01-27T15:55:46;11.00;99.90
16315;DHT22;8266;52.150;4.768;2024-01-27T15:58:13;11.00;99.90